createdAt,value
2018-12-18T00:02:16.828Z,17.77
2018-12-18T00:04:50.994Z,17.03
2018-12-18T00:07:24.553Z,19.30
2018-12-18T00:09:57.197Z,15.87
2018-12-18T00:12:31.604Z,14.60
2018-12-18T00:15:07.055Z,17.87
2018-12-18T00:17:53.333Z,14.25
2018-12-18T00:20:27.795Z,13.73
2018-12-18T00:23:01.032Z,20.37
2018-12-18T00:25:34.592Z,18.80
2018-12-18T00:28:07.387Z,14.30
2018-12-18T00:30:40.947Z,13.23
2018-12-18T00:33:13.915Z,17.80
2018-12-18T00:35:46.511Z,17.10
2018-12-18T00:38:19.117Z,18.03
2018-12-18T00:40:52.144Z,15.20
2018-12-18T00:43:24.686Z,16.73
2018-12-18T00:45:57.378Z,20.13
2018-12-18T00:48:31.213Z,20.10
2018-12-18T00:51:04.624Z,18.33
2018-12-18T00:53:37.314Z,18.80
2018-12-18T00:56:10.211Z,20.87
2018-12-18T00:58:46.076Z,22.67
2018-12-18T01:01:18.855Z,18.07
2018-12-18T01:03:52.966Z,18.00
2018-12-18T01:06:25.820Z,21.83
2018-12-18T01:08:59.451Z,19.33
2018-12-18T01:11:33.696Z,20.50
2018-12-18T01:14:06.883Z,21.80
2018-12-18T01:16:39.611Z,21.93
2018-12-18T01:19:13.396Z,19.47
2018-12-18T01:21:46.005Z,25.20
2018-12-18T01:24:18.554Z,24.20
2018-12-18T01:26:51.825Z,23.10
2018-12-18T01:29:24.362Z,18.43
2018-12-18T01:31:56.938Z,21.27
2018-12-18T01:34:29.945Z,23.20
2018-12-18T01:37:02.501Z,21.93
2018-12-18T01:39:35.093Z,21.35
2018-12-18T01:42:08.116Z,24.30
2018-12-18T01:44:41.787Z,21.30
2018-12-18T01:47:16.295Z,18.33
2018-12-18T01:49:49.445Z,17.63
2018-12-18T01:52:22.055Z,23.97
2018-12-18T01:54:55.532Z,24.00
2018-12-18T01:57:28.581Z,24.83
2018-12-18T02:00:01.558Z,23.87
2018-12-18T02:02:36.446Z,22.20
2018-12-18T02:05:10.324Z,21.70
2018-12-18T02:07:42.853Z,26.47
2018-12-18T02:10:15.449Z,26.17
2018-12-18T02:12:50.324Z,28.90
2018-12-18T02:15:22.890Z,23.23
2018-12-18T02:17:55.865Z,21.13
2018-12-18T02:20:29.702Z,26.60
2018-12-18T02:23:02.391Z,26.67
2018-12-18T02:25:34.982Z,27.13
2018-12-18T02:28:07.964Z,25.90
2018-12-18T02:30:40.818Z,23.27
2018-12-18T02:33:13.376Z,28.90
2018-12-18T02:35:46.372Z,27.10
2018-12-18T02:38:19.864Z,24.20
2018-12-18T02:40:52.537Z,19.90
2018-12-18T02:43:26.435Z,24.53
2018-12-18T02:45:59.133Z,22.47
2018-12-18T02:48:31.983Z,20.73
2018-12-18T02:51:06.519Z,19.63
2018-12-18T02:53:39.065Z,22.43
2018-12-18T02:56:12.212Z,17.15
2018-12-18T02:58:50.714Z,17.90
2018-12-18T03:01:23.348Z,19.07
2018-12-18T03:03:56.173Z,17.10
2018-12-18T03:06:29.606Z,17.67
2018-12-18T03:09:03.484Z,14.47
2018-12-18T03:11:37.190Z,13.20
2018-12-18T03:14:10.144Z,13.93
2018-12-18T03:16:42.689Z,13.43
2018-12-18T03:19:16.048Z,15.37
2018-12-18T03:21:50.163Z,12.03
2018-12-18T03:24:23.983Z,10.60
2018-12-18T03:26:56.761Z,10.93
2018-12-18T03:29:30.502Z,11.00
2018-12-18T03:32:08.582Z,15.43
2018-12-18T03:34:42.061Z,12.03
2018-12-18T03:37:18.087Z,13.93
2018-12-18T03:39:50.909Z,15.25
2018-12-18T03:42:24.372Z,12.17
2018-12-18T03:44:57.497Z,14.13
2018-12-18T03:47:33.140Z,12.63
2018-12-18T03:50:06.622Z,13.60
2018-12-18T03:52:40.284Z,16.23
2018-12-18T03:55:12.921Z,14.80
2018-12-18T03:57:45.472Z,11.40
2018-12-18T04:00:17.911Z,13.90
2018-12-18T04:02:50.952Z,13.47
2018-12-18T04:05:24.620Z,9.97
2018-12-18T04:07:58.407Z,10.57
2018-12-18T04:10:31.980Z,11.03
2018-12-18T04:13:04.613Z,13.60
2018-12-18T04:15:37.672Z,8.23
2018-12-18T04:18:11.211Z,12.47
2018-12-18T04:20:43.717Z,14.17
2018-12-18T04:23:16.828Z,14.52
2018-12-18T04:25:49.308Z,13.00
2018-12-18T04:28:22.465Z,13.67
2018-12-18T04:30:55.704Z,10.90
2018-12-18T04:33:28.924Z,11.80
2018-12-18T04:36:01.486Z,13.60
2018-12-18T04:38:35.300Z,14.53
2018-12-18T04:41:08.626Z,14.17
2018-12-18T04:43:41.384Z,10.30
2018-12-18T04:46:14.867Z,13.23
2018-12-18T04:48:47.508Z,11.83
2018-12-18T04:51:20.239Z,11.53
2018-12-18T04:53:54.215Z,10.03
2018-12-18T04:56:26.774Z,13.37
2018-12-18T04:58:59.451Z,12.10
2018-12-18T05:01:32.612Z,9.20
2018-12-18T05:04:06.429Z,11.97
2018-12-18T05:06:39.084Z,15.17
2018-12-18T05:09:12.015Z,11.75
2018-12-18T05:11:44.972Z,12.43
2018-12-18T05:14:18.412Z,10.00
2018-12-18T05:16:52.392Z,10.97
2018-12-18T05:19:26.171Z,14.13
2018-12-18T05:21:58.974Z,14.80
2018-12-18T05:24:33.142Z,12.33
2018-12-18T05:27:06.764Z,11.23
2018-12-18T05:29:39.897Z,14.60
2018-12-18T05:32:14.409Z,11.00
2018-12-18T05:34:47.188Z,8.60
2018-12-18T05:37:19.952Z,10.60
2018-12-18T05:39:54.764Z,14.60
2018-12-18T05:42:27.353Z,12.73
2018-12-18T05:45:00.847Z,10.23
2018-12-18T05:47:36.416Z,9.50
2018-12-18T05:50:09.064Z,12.07
2018-12-18T05:52:42.387Z,13.73
2018-12-18T05:55:15.369Z,15.70
2018-12-18T05:57:48.014Z,14.70
2018-12-18T06:00:20.696Z,14.07
2018-12-18T06:02:54.363Z,11.90
2018-12-18T06:05:28.359Z,14.43
2018-12-18T06:08:02.470Z,9.53
2018-12-18T06:10:36.392Z,12.50
2018-12-18T06:13:09.078Z,11.80
2018-12-18T06:15:42.422Z,11.23
2018-12-18T06:18:16.283Z,12.40
2018-12-18T06:20:48.944Z,14.67
2018-12-18T06:23:21.615Z,12.37
2018-12-18T06:25:56.051Z,9.20
2018-12-18T06:28:28.899Z,12.40
2018-12-18T06:31:01.584Z,11.57
2018-12-18T06:33:35.657Z,12.83
2018-12-18T06:36:08.325Z,12.40
2018-12-18T06:38:41.044Z,11.53
2018-12-18T06:41:13.912Z,9.33
2018-12-18T06:43:46.608Z,16.10
2018-12-18T06:46:19.350Z,9.57
2018-12-18T06:48:54.301Z,13.70
2018-12-18T06:51:26.879Z,12.17
2018-12-18T06:53:59.425Z,11.93
2018-12-18T06:56:32.220Z,14.10
2018-12-18T06:59:07.122Z,10.07
2018-12-18T07:01:39.694Z,15.17
2018-12-18T07:04:14.181Z,12.03
2018-12-18T07:06:46.807Z,10.77
2018-12-18T07:09:20.753Z,14.03
2018-12-18T07:11:53.667Z,8.70
2018-12-18T07:14:26.968Z,7.70
2018-12-18T07:16:59.560Z,15.73
2018-12-18T07:19:37.256Z,9.87
2018-12-18T07:22:09.812Z,9.27
2018-12-18T07:24:42.548Z,12.60
2018-12-18T07:27:16.521Z,9.43
2018-12-18T07:29:49.125Z,13.30
2018-12-18T07:32:21.800Z,14.00
2018-12-18T07:34:55.764Z,14.43
2018-12-18T07:37:31.659Z,12.13
2018-12-18T07:40:05.969Z,8.67
2018-12-18T07:42:39.892Z,10.57
2018-12-18T07:45:14.291Z,11.00
2018-12-18T07:47:47.083Z,10.53
2018-12-18T07:50:19.846Z,9.40
2018-12-18T07:52:53.711Z,10.83
2018-12-18T07:55:27.053Z,14.03
2018-12-18T07:58:01.291Z,11.40
2018-12-18T08:00:34.005Z,8.77
2018-12-18T08:03:07.551Z,11.77
2018-12-18T08:05:41.572Z,11.98
2018-12-18T08:08:15.968Z,9.43
2018-12-18T08:10:55.697Z,11.83
2018-12-18T08:13:40.670Z,6.73
2018-12-18T08:16:13.342Z,11.17
2018-12-18T08:18:47.214Z,12.40
2018-12-18T08:21:24.048Z,12.77
2018-12-18T08:23:59.266Z,9.73
2018-12-18T08:26:32.247Z,9.17
2018-12-18T08:29:05.909Z,14.83
2018-12-18T08:31:39.492Z,13.93
2018-12-18T08:34:16.217Z,10.57
2018-12-18T08:36:49.750Z,7.53
2018-12-18T08:39:22.397Z,11.07
2018-12-18T08:41:56.598Z,10.90
2018-12-18T08:44:29.205Z,11.83
2018-12-18T08:47:02.677Z,8.05
2018-12-18T08:49:36.385Z,11.95
2018-12-18T08:52:11.126Z,9.63
2018-12-18T08:54:46.832Z,11.12
2018-12-18T08:57:21.426Z,8.50
2018-12-18T08:59:55.431Z,8.57
2018-12-18T09:02:29.811Z,12.63
2018-12-18T09:05:09.790Z,10.60
2018-12-18T09:07:46.377Z,9.93
2018-12-18T09:10:19.721Z,8.17
2018-12-18T09:12:53.124Z,8.63
2018-12-18T09:15:32.235Z,7.20
2018-12-18T09:18:05.762Z,9.13
2018-12-18T09:20:39.186Z,6.87
2018-12-18T09:23:11.994Z,7.80
2018-12-18T09:25:45.024Z,9.60
2018-12-18T09:28:22.791Z,7.63
2018-12-18T09:30:55.356Z,10.13
2018-12-18T09:33:28.392Z,9.70
2018-12-18T09:36:01.008Z,8.40
2018-12-18T09:38:41.320Z,8.50
2018-12-18T09:41:21.125Z,7.95
2018-12-18T09:44:08.018Z,7.00
2018-12-18T09:46:40.629Z,6.63
2018-12-18T09:49:13.657Z,10.40
2018-12-18T09:51:47.906Z,10.63
2018-12-18T09:54:21.364Z,7.57
2018-12-18T09:56:59.973Z,7.80
2018-12-18T09:59:33.632Z,6.65
2018-12-18T10:02:07.711Z,7.93
2018-12-18T10:04:41.069Z,7.90
2018-12-18T10:07:14.545Z,7.33
2018-12-18T10:09:48.656Z,7.07
2018-12-18T10:12:28.901Z,6.53
2018-12-18T10:15:02.999Z,12.87
2018-12-18T10:17:35.717Z,7.27
2018-12-18T10:20:08.770Z,7.90
2018-12-18T10:22:54.030Z,4.80
2018-12-18T10:25:29.049Z,7.10
2018-12-18T10:28:05.838Z,7.77
2018-12-18T10:30:39.613Z,8.23
2018-12-18T10:33:12.363Z,7.70
2018-12-18T10:35:46.888Z,5.17
2018-12-18T10:38:19.470Z,6.32
2018-12-18T10:40:52.077Z,4.37
2018-12-18T10:43:26.218Z,6.47
2018-12-18T10:45:59.757Z,7.17
2018-12-18T10:48:33.308Z,5.67
2018-12-18T10:51:07.552Z,7.10
2018-12-18T10:53:40.284Z,6.27
2018-12-18T10:56:14.588Z,8.97
2018-12-18T10:58:47.583Z,7.23
2018-12-18T11:01:26.477Z,8.70
2018-12-18T11:04:01.938Z,7.93
2018-12-18T11:06:41.659Z,11.57
2018-12-18T11:09:16.311Z,8.10
2018-12-18T11:11:49.497Z,7.73
2018-12-18T11:14:22.615Z,7.65
2018-12-18T11:16:56.432Z,8.73
2018-12-18T11:19:30.635Z,7.50
2018-12-18T11:22:04.781Z,9.23
2018-12-18T11:24:37.391Z,4.03
2018-12-18T11:27:14.104Z,7.30
2018-12-18T11:29:48.402Z,6.73
2018-12-18T11:32:22.382Z,4.87
2018-12-18T11:35:00.917Z,5.90
2018-12-18T11:37:33.721Z,7.23
2018-12-18T11:40:07.740Z,6.37
2018-12-18T11:42:42.840Z,6.73
2018-12-18T11:45:17.860Z,8.90
2018-12-18T11:47:55.912Z,8.33
2018-12-18T11:50:29.283Z,9.40
2018-12-18T11:53:07.999Z,7.73
2018-12-18T11:55:41.760Z,6.40
2018-12-18T11:58:14.897Z,6.63
2018-12-18T12:00:54.932Z,10.87
2018-12-18T12:03:30.716Z,6.30
2018-12-18T12:06:22.851Z,8.70
2018-12-18T12:09:19.823Z,8.75
2018-12-18T12:12:08.845Z,9.13
2018-12-18T12:14:44.300Z,6.77
2018-12-18T12:17:17.747Z,6.47
2018-12-18T12:19:51.290Z,6.43
2018-12-18T12:22:25.699Z,6.23
2018-12-18T12:25:03.784Z,3.80
2018-12-18T12:27:43.539Z,8.23
2018-12-18T12:30:18.419Z,5.07
2018-12-18T12:32:52.854Z,6.13
2018-12-18T12:35:30.655Z,7.28
2018-12-18T12:38:12.110Z,9.77
2018-12-18T12:40:50.979Z,7.43
2018-12-18T12:43:27.033Z,6.23
2018-12-18T12:46:00.199Z,10.73
2018-12-18T12:48:39.540Z,8.87
2018-12-18T12:51:12.350Z,9.07
2018-12-18T12:53:46.465Z,5.67
2018-12-18T12:56:26.695Z,5.77
2018-12-18T12:59:00.777Z,10.47
2018-12-18T13:01:34.163Z,7.40
2018-12-18T13:04:08.081Z,8.30
2018-12-18T13:06:42.273Z,7.87
2018-12-18T13:09:16.033Z,10.80
2018-12-18T13:11:48.755Z,8.67
2018-12-18T13:14:22.711Z,6.03
2018-12-18T13:16:57.033Z,6.40
2018-12-18T13:19:30.176Z,8.47
2018-12-18T13:22:04.323Z,8.83
2018-12-18T13:24:39.577Z,8.77
2018-12-18T13:27:13.436Z,6.93
2018-12-18T13:29:49.838Z,7.50
2018-12-18T13:32:23.849Z,7.97
2018-12-18T13:35:06.308Z,9.97
2018-12-18T13:37:38.874Z,9.43
2018-12-18T13:40:13.916Z,13.20
2018-12-18T13:42:49.004Z,7.30
2018-12-18T13:45:21.778Z,10.45
2018-12-18T13:47:55.249Z,8.80
2018-12-18T13:50:28.695Z,11.03
2018-12-18T13:53:02.081Z,6.87
2018-12-18T13:55:37.065Z,7.57
2018-12-18T13:58:12.992Z,5.93
2018-12-18T14:00:49.495Z,8.07
2018-12-18T14:03:24.711Z,9.13
2018-12-18T14:05:58.337Z,8.48
2018-12-18T14:08:32.452Z,7.57
2018-12-18T14:11:06.895Z,7.40
2018-12-18T14:13:40.989Z,6.83
2018-12-18T14:16:15.730Z,5.80
2018-12-18T14:18:50.811Z,6.80
2018-12-18T14:21:29.602Z,9.57
2018-12-18T14:24:03.037Z,8.67
2018-12-18T14:26:37.956Z,8.43
2018-12-18T14:29:16.784Z,10.67
2018-12-18T14:32:04.937Z,6.10
2018-12-18T14:34:42.511Z,9.33
2018-12-18T14:37:16.321Z,7.87
2018-12-18T14:39:49.077Z,9.50
2018-12-18T14:42:26.495Z,10.63
2018-12-18T14:45:07.507Z,6.37
2018-12-18T14:47:43.570Z,8.30
2018-12-18T14:50:17.721Z,5.43
2018-12-18T14:52:51.132Z,6.97
2018-12-18T14:55:27.888Z,8.10
2018-12-18T14:58:06.551Z,7.12
2018-12-18T15:00:42.428Z,5.53
2018-12-18T15:03:16.116Z,5.83
2018-12-18T15:05:51.741Z,8.00
2018-12-18T15:08:28.517Z,6.97
2018-12-18T15:11:01.340Z,10.93
2018-12-18T15:13:36.014Z,7.67
2018-12-18T15:16:09.317Z,6.63
2018-12-18T15:18:42.113Z,9.33
2018-12-18T15:21:17.505Z,7.50
2018-12-18T15:23:56.057Z,7.70
2018-12-18T15:26:31.774Z,9.00
2018-12-18T15:29:11.363Z,6.72
2018-12-18T15:31:44.116Z,6.13
2018-12-18T15:34:18.552Z,10.07
2018-12-18T15:36:54.386Z,10.70
2018-12-18T15:39:28.784Z,8.17
2018-12-18T15:42:02.376Z,10.03
2018-12-18T15:44:39.120Z,8.47
2018-12-18T15:47:12.552Z,7.40
2018-12-18T15:49:47.038Z,10.00
2018-12-18T15:52:19.930Z,4.33
2018-12-18T15:54:53.644Z,9.20
2018-12-18T15:57:26.209Z,6.13
2018-12-18T16:00:00.345Z,7.83
2018-12-18T16:02:36.028Z,9.93
2018-12-18T16:05:09.450Z,7.40
2018-12-18T16:07:42.423Z,6.87
2018-12-18T16:10:15.233Z,8.53
2018-12-18T16:12:48.213Z,7.20
2018-12-18T16:15:22.362Z,10.57
2018-12-18T16:17:56.848Z,6.23
2018-12-18T16:20:37.755Z,6.93
2018-12-18T16:23:10.995Z,7.53
2018-12-18T16:25:45.180Z,6.07
2018-12-18T16:28:19.049Z,7.53
2018-12-18T16:30:52.430Z,6.40
2018-12-18T16:33:25.815Z,6.65
2018-12-18T16:35:59.838Z,6.53
2018-12-18T16:38:35.412Z,5.27
2018-12-18T16:41:08.243Z,6.07
2018-12-18T16:43:41.823Z,6.45
2018-12-18T16:46:17.716Z,7.10
2018-12-18T16:48:51.412Z,7.37
2018-12-18T16:51:25.271Z,7.50
2018-12-18T16:54:01.599Z,8.17
2018-12-18T16:56:34.505Z,7.53
2018-12-18T16:59:07.382Z,8.67
2018-12-18T17:01:43.441Z,7.87
2018-12-18T17:04:17.815Z,8.80
2018-12-18T17:06:53.497Z,9.73
2018-12-18T17:09:27.332Z,7.00
2018-12-18T17:12:00.614Z,9.63
2018-12-18T17:14:35.140Z,10.13
2018-12-18T17:17:10.226Z,11.73
2018-12-18T17:19:43.088Z,9.60
2018-12-18T17:22:15.866Z,8.40
2018-12-18T17:24:57.377Z,8.63
2018-12-18T17:27:30.159Z,7.70
2018-12-18T17:30:13.318Z,8.27
2018-12-18T17:32:46.921Z,9.07
2018-12-18T17:35:20.456Z,10.33
2018-12-18T17:37:54.531Z,9.93
2018-12-18T17:40:29.048Z,11.03
2018-12-18T17:43:03.489Z,8.73
2018-12-18T17:45:36.928Z,8.83
2018-12-18T17:48:13.815Z,8.87
2018-12-18T17:50:46.965Z,13.20
2018-12-18T17:53:21.247Z,10.67
2018-12-18T17:55:55.391Z,9.33
2018-12-18T17:58:30.525Z,10.93
2018-12-18T18:01:05.192Z,10.30
2018-12-18T18:03:41.149Z,8.33
2018-12-18T18:06:14.570Z,10.50
2018-12-18T18:08:47.535Z,8.37
2018-12-18T18:11:20.253Z,9.40
2018-12-18T18:13:53.853Z,11.27
2018-12-18T18:16:28.829Z,9.63
2018-12-18T18:19:04.019Z,8.97
2018-12-18T18:21:39.545Z,7.43
2018-12-18T18:24:14.402Z,10.53
2018-12-18T18:26:47.355Z,7.80
2018-12-18T18:29:22.076Z,9.30
2018-12-18T18:31:56.265Z,11.80
2018-12-18T18:34:30.679Z,10.63
2018-12-18T18:37:04.851Z,9.70
2018-12-18T18:39:39.578Z,9.23
2018-12-18T18:42:13.375Z,9.20
2018-12-18T18:44:48.145Z,10.23
2018-12-18T18:47:22.923Z,8.83
2018-12-18T18:49:59.468Z,8.03
2018-12-18T18:52:35.462Z,9.47
2018-12-18T18:55:08.333Z,6.23
2018-12-18T18:57:41.609Z,8.37
2018-12-18T19:00:18.859Z,9.63
2018-12-18T19:02:51.593Z,7.57
2018-12-18T19:05:26.465Z,7.00
2018-12-18T19:08:02.911Z,9.13
2018-12-18T19:10:37.749Z,6.60
2018-12-18T19:13:12.531Z,7.37
2018-12-18T19:15:45.674Z,6.00
2018-12-18T19:18:22.992Z,7.13
2018-12-18T19:20:57.226Z,6.40
2018-12-18T19:23:32.178Z,6.87
2018-12-18T19:26:09.172Z,8.47
2018-12-18T19:28:50.071Z,8.60
2018-12-18T19:31:26.220Z,7.50
2018-12-18T19:34:00.546Z,6.03
2018-12-18T19:36:33.696Z,6.90
2018-12-18T19:39:09.691Z,7.93
2018-12-18T19:41:42.772Z,7.45
2018-12-18T19:44:18.542Z,6.97
2018-12-18T19:46:53.428Z,6.07
2018-12-18T19:49:27.487Z,7.93
2018-12-18T19:52:02.969Z,7.10
2018-12-18T19:54:38.473Z,5.53
2018-12-18T19:57:14.434Z,6.10
2018-12-18T19:59:49.837Z,5.97
2018-12-18T20:02:24.734Z,6.47
2018-12-18T20:04:57.874Z,7.10
2018-12-18T20:07:31.623Z,7.17
2018-12-18T20:10:05.865Z,5.17
2018-12-18T20:12:39.939Z,6.28
2018-12-18T20:15:15.774Z,7.27
2018-12-18T20:17:51.666Z,4.67
2018-12-18T20:20:26.249Z,5.43
2018-12-18T20:23:01.494Z,6.53
2018-12-18T20:25:35.962Z,4.27
2018-12-18T20:28:10.171Z,5.57
2018-12-18T20:30:45.605Z,4.60
2018-12-18T20:33:20.144Z,7.80
2018-12-18T20:35:53.381Z,7.33
2018-12-18T20:38:26.793Z,6.10
2018-12-18T20:41:01.086Z,6.77
2018-12-18T20:43:35.373Z,8.00
2018-12-18T20:46:10.012Z,4.60
2018-12-18T20:48:44.030Z,5.60
2018-12-18T20:51:21.679Z,4.17
2018-12-18T20:53:55.727Z,4.23
2018-12-18T20:56:28.880Z,6.17
2018-12-18T20:59:04.419Z,4.97
2018-12-18T21:01:38.229Z,4.93
2018-12-18T21:04:11.019Z,5.67
2018-12-18T21:06:44.087Z,7.70
2018-12-18T21:09:17.083Z,6.17
2018-12-18T21:11:49.805Z,4.55
2018-12-18T21:14:27.089Z,5.87
2018-12-18T21:17:00.545Z,5.90
2018-12-18T21:19:38.528Z,5.07
2018-12-18T21:22:13.685Z,4.10
2018-12-18T21:24:49.765Z,4.80
2018-12-18T21:27:24.787Z,5.03
2018-12-18T21:29:59.611Z,6.43
2018-12-18T21:32:34.540Z,5.57
2018-12-18T21:35:09.533Z,5.82
2018-12-18T21:37:44.763Z,4.60
2018-12-18T21:40:19.093Z,5.43
2018-12-18T21:42:55.817Z,5.33
2018-12-18T21:45:35.187Z,3.37
2018-12-18T21:48:08.750Z,4.07
2018-12-18T21:50:42.749Z,5.20
2018-12-18T21:53:23.844Z,5.47
2018-12-18T21:55:57.360Z,5.05
2018-12-18T21:58:31.771Z,6.17
2018-12-18T22:01:06.425Z,3.43
2018-12-18T22:03:42.485Z,5.50
2018-12-18T22:06:16.174Z,5.78
2018-12-18T22:08:52.016Z,6.63
2018-12-18T22:11:26.519Z,5.20
2018-12-18T22:14:00.807Z,7.13
2018-12-18T22:16:35.480Z,4.67
2018-12-18T22:19:08.550Z,5.00
2018-12-18T22:21:44.805Z,6.43
2018-12-18T22:24:20.407Z,4.23
2018-12-18T22:26:53.903Z,4.30
2018-12-18T22:29:27.502Z,5.67
2018-12-18T22:32:01.706Z,4.50
2018-12-18T22:34:34.226Z,5.63
2018-12-18T22:37:07.095Z,4.27
2018-12-18T22:39:41.420Z,5.80
2018-12-18T22:42:16.768Z,3.77
2018-12-18T22:44:49.456Z,4.37
2018-12-18T22:47:22.463Z,3.67
2018-12-18T22:49:59.064Z,3.73
2018-12-18T22:52:31.920Z,3.83
2018-12-18T22:55:07.961Z,2.60
2018-12-18T22:57:43.615Z,4.90
2018-12-18T23:00:24.388Z,5.23
2018-12-18T23:02:57.930Z,5.30
2018-12-18T23:05:32.361Z,4.27
2018-12-18T23:08:06.492Z,4.40
2018-12-18T23:10:40.804Z,5.03
2018-12-18T23:13:23.162Z,6.70
2018-12-18T23:15:55.790Z,3.47
2018-12-18T23:18:28.565Z,5.07
2018-12-18T23:21:02.864Z,3.73
2018-12-18T23:23:36.419Z,4.23
2018-12-18T23:26:10.189Z,3.30
2018-12-18T23:28:42.985Z,5.73
2018-12-18T23:31:15.920Z,4.37
2018-12-18T23:33:48.493Z,3.57
2018-12-18T23:36:22.379Z,3.47
2018-12-18T23:38:56.999Z,4.93
2018-12-18T23:41:29.945Z,3.27
2018-12-18T23:44:04.106Z,3.90
2018-12-18T23:46:37.990Z,4.00
2018-12-18T23:49:12.151Z,4.93
2018-12-18T23:51:45.011Z,4.37
2018-12-18T23:54:18.968Z,3.47
2018-12-18T23:56:51.529Z,3.93
2018-12-18T23:59:24.149Z,4.83
